createdAt,value
2019-01-12T00:00:02.454Z,-7.14
2019-01-12T00:01:02.926Z,-7.14
2019-01-12T00:02:03.394Z,-7.14
2019-01-12T00:03:03.867Z,-7.14
2019-01-12T00:04:04.338Z,-7.14
2019-01-12T00:05:04.805Z,-7.14
2019-01-12T00:06:05.276Z,-7.14
2019-01-12T00:07:05.748Z,-7.14
2019-01-12T00:08:06.215Z,-7.14
2019-01-12T00:09:06.688Z,-7.14
2019-01-12T00:10:07.158Z,-7.14
2019-01-12T00:11:07.628Z,-7.15
2019-01-12T00:12:08.099Z,-7.14
2019-01-12T00:13:08.569Z,-7.14
2019-01-12T00:14:09.039Z,-7.15
2019-01-12T00:15:09.512Z,-7.13
2019-01-12T00:16:10.017Z,-7.12
2019-01-12T00:17:10.451Z,-7.14
2019-01-12T00:18:10.921Z,-7.14
2019-01-12T00:19:11.392Z,-7.14
2019-01-12T00:20:11.862Z,-7.13
2019-01-12T00:21:12.333Z,-7.14
2019-01-12T00:22:12.802Z,-7.14
2019-01-12T00:23:13.274Z,-7.14
2019-01-12T00:24:13.744Z,-7.14
2019-01-12T00:25:14.214Z,-7.13
2019-01-12T00:26:14.685Z,-7.14
2019-01-12T00:27:15.166Z,-7.14
2019-01-12T00:28:15.634Z,-7.14
2019-01-12T00:29:16.098Z,-7.14
2019-01-12T00:30:16.575Z,-7.12
2019-01-12T00:31:17.038Z,-7.14
2019-01-12T00:32:17.510Z,-7.14
2019-01-12T00:33:17.979Z,-7.14
2019-01-12T00:34:18.451Z,-7.14
2019-01-12T00:35:18.920Z,-7.14
2019-01-12T00:36:19.389Z,-7.14
2019-01-12T00:37:19.861Z,-7.14
2019-01-12T00:38:20.331Z,-7.12
2019-01-12T00:39:20.807Z,-7.14
2019-01-12T00:40:21.271Z,-7.14
2019-01-12T00:41:21.742Z,-7.14
2019-01-12T00:42:22.214Z,-7.14
2019-01-12T00:43:22.686Z,-7.14
2019-01-12T00:44:23.154Z,-7.14
2019-01-12T00:45:23.626Z,-7.14
2019-01-12T00:46:24.101Z,-7.14
2019-01-12T00:47:24.568Z,-7.14
2019-01-12T00:48:25.037Z,-7.14
2019-01-12T00:49:25.507Z,-7.12
2019-01-12T00:50:25.978Z,-7.13
2019-01-12T00:51:26.449Z,-7.13
2019-01-12T00:52:26.920Z,-7.14
2019-01-12T00:53:27.393Z,-7.12
2019-01-12T00:54:27.860Z,-7.12
2019-01-12T00:55:28.332Z,-7.14
2019-01-12T00:56:28.802Z,-7.14
2019-01-12T00:57:29.274Z,-7.14
2019-01-12T00:58:29.745Z,-7.14
2019-01-12T00:59:30.216Z,-7.14
2019-01-12T01:00:30.685Z,-7.14
2019-01-12T01:01:31.163Z,-7.14
2019-01-12T01:02:31.627Z,-7.14
2019-01-12T01:03:32.097Z,-7.12
2019-01-12T01:04:32.569Z,-7.14
2019-01-12T01:05:33.037Z,-7.14
2019-01-12T01:06:33.709Z,-7.14
2019-01-12T01:07:33.980Z,-7.14
2019-01-12T01:08:34.487Z,-7.14
2019-01-12T01:09:34.961Z,-7.14
2019-01-12T01:10:35.392Z,-7.12
2019-01-12T01:11:35.862Z,-7.13
2019-01-12T01:12:36.336Z,-7.12
2019-01-12T01:13:36.803Z,-7.12
2019-01-12T01:14:37.273Z,-7.13
2019-01-12T01:15:37.744Z,-7.13
2019-01-12T01:16:38.219Z,-7.14
2019-01-12T01:17:38.685Z,-7.12
2019-01-12T01:18:39.155Z,-7.12
2019-01-12T01:19:39.627Z,-7.12
2019-01-12T01:20:40.095Z,-7.12
2019-01-12T01:21:40.569Z,-7.14
2019-01-12T01:22:41.039Z,-7.14
2019-01-12T01:23:41.509Z,-7.12
2019-01-12T01:24:45.692Z,-7.12
2019-01-12T01:25:42.449Z,-7.14
2019-01-12T01:26:42.921Z,-7.12
2019-01-12T01:27:43.392Z,-7.13
2019-01-12T01:28:43.862Z,-7.10
2019-01-12T01:29:44.333Z,-7.12
2019-01-12T01:30:44.804Z,-7.12
2019-01-12T01:31:45.279Z,-7.12
2019-01-12T01:32:45.746Z,-7.12
2019-01-12T01:33:46.217Z,-7.12
2019-01-12T01:34:46.689Z,-7.12
2019-01-12T01:35:47.156Z,-7.12
2019-01-12T01:36:47.624Z,-7.11
2019-01-12T01:37:48.098Z,-7.10
2019-01-12T01:38:48.569Z,-7.12
2019-01-12T01:39:49.041Z,-7.12
2019-01-12T01:40:49.509Z,-7.12
2019-01-12T01:41:49.981Z,-7.12
2019-01-12T01:42:50.451Z,-7.13
2019-01-12T01:43:50.920Z,-7.11
2019-01-12T01:44:51.391Z,-7.10
2019-01-12T01:45:51.863Z,-7.12
2019-01-12T01:46:52.339Z,-7.12
2019-01-12T01:47:52.804Z,-7.11
2019-01-12T01:48:53.274Z,-7.12
2019-01-12T01:49:53.746Z,-7.12
2019-01-12T01:50:54.216Z,-7.10
2019-01-12T01:51:54.687Z,-7.12
2019-01-12T01:52:55.159Z,-7.12
2019-01-12T01:53:55.628Z,-7.12
2019-01-12T01:54:56.108Z,-7.11
2019-01-12T01:55:56.568Z,-7.12
2019-01-12T01:56:57.098Z,-7.12
2019-01-12T01:57:57.509Z,-7.12
2019-01-12T01:58:57.982Z,-7.11
2019-01-12T01:59:58.452Z,-7.10
2019-01-12T02:00:58.923Z,-7.12
2019-01-12T02:01:59.396Z,-7.12
2019-01-12T02:02:59.864Z,-7.10
2019-01-12T02:04:00.336Z,-7.12
2019-01-12T02:05:00.807Z,-7.10
2019-01-12T02:06:01.279Z,-7.12
2019-01-12T02:07:01.747Z,-7.12
2019-01-12T02:08:02.219Z,-7.12
2019-01-12T02:09:02.688Z,-7.12
2019-01-12T02:10:03.164Z,-7.10
2019-01-12T02:11:03.637Z,-7.12
2019-01-12T02:12:04.101Z,-7.11
2019-01-12T02:13:04.571Z,-7.12
2019-01-12T02:14:05.044Z,-7.10
2019-01-12T02:15:05.513Z,-7.12
2019-01-12T02:16:06.325Z,-7.11
2019-01-12T02:17:06.457Z,-7.11
2019-01-12T02:18:06.923Z,-7.10
2019-01-12T02:19:07.395Z,-7.10
2019-01-12T02:20:07.866Z,-7.12
2019-01-12T02:21:08.338Z,-7.12
2019-01-12T02:22:08.807Z,-7.10
2019-01-12T02:23:09.283Z,-7.10
2019-01-12T02:24:09.749Z,-7.12
2019-01-12T02:25:10.425Z,-7.10
2019-01-12T02:26:10.691Z,-7.11
2019-01-12T02:27:11.159Z,-7.12
2019-01-12T02:28:11.631Z,-7.11
2019-01-12T02:29:12.103Z,-7.10
2019-01-12T02:30:12.581Z,-7.10
2019-01-12T02:31:13.044Z,-7.11
2019-01-12T02:32:13.516Z,-7.11
2019-01-12T02:33:13.985Z,-7.12
2019-01-12T02:34:14.456Z,-7.10
2019-01-12T02:35:14.928Z,-7.10
2019-01-12T02:36:15.398Z,-7.12
2019-01-12T02:37:15.868Z,-7.11
2019-01-12T02:38:16.540Z,-7.12
2019-01-12T02:39:16.809Z,-7.09
2019-01-12T02:40:17.284Z,-7.10
2019-01-12T02:41:17.749Z,-7.10
2019-01-12T02:42:18.219Z,-7.11
2019-01-12T02:43:18.695Z,-7.10
2019-01-12T02:44:19.161Z,-7.11
2019-01-12T02:45:19.633Z,-7.10
2019-01-12T02:46:20.101Z,-7.10
2019-01-12T02:47:20.575Z,-7.10
2019-01-12T02:48:21.045Z,-7.11
2019-01-12T02:49:21.513Z,-7.10
2019-01-12T02:50:21.984Z,-7.10
2019-01-12T02:51:22.797Z,-7.10
2019-01-12T02:52:22.926Z,-7.10
2019-01-12T02:53:23.395Z,-7.10
2019-01-12T02:54:23.865Z,-7.10
2019-01-12T02:55:24.336Z,-7.10
2019-01-12T02:56:24.810Z,-7.10
2019-01-12T02:57:25.278Z,-7.10
2019-01-12T02:58:25.748Z,-7.11
2019-01-12T02:59:26.221Z,-7.10
2019-01-12T03:00:26.697Z,-7.12
2019-01-12T03:01:27.159Z,-7.09
2019-01-12T03:02:27.634Z,-7.10
2019-01-12T03:03:28.102Z,-7.09
2019-01-12T03:04:28.574Z,-7.10
2019-01-12T03:05:29.043Z,-7.09
2019-01-12T03:06:29.515Z,-7.10
2019-01-12T03:07:30.025Z,-7.09
2019-01-12T03:08:30.456Z,-7.09
2019-01-12T03:09:30.925Z,-7.10
2019-01-12T03:10:31.398Z,-7.10
2019-01-12T03:11:31.868Z,-7.10
2019-01-12T03:12:32.338Z,-7.10
2019-01-12T03:13:32.807Z,-7.10
2019-01-12T03:14:33.279Z,-7.10
2019-01-12T03:15:33.757Z,-7.10
2019-01-12T03:16:34.219Z,-7.08
2019-01-12T03:17:34.694Z,-7.09
2019-01-12T03:18:35.162Z,-7.10
2019-01-12T03:19:35.632Z,-7.10
2019-01-12T03:20:36.102Z,-7.10
2019-01-12T03:21:36.573Z,-7.10
2019-01-12T03:22:37.043Z,-7.10
2019-01-12T03:23:37.514Z,-7.08
2019-01-12T03:24:37.988Z,-7.08
2019-01-12T03:25:38.456Z,-7.10
2019-01-12T03:26:38.926Z,-7.10
2019-01-12T03:27:39.484Z,-7.08
2019-01-12T03:28:39.868Z,-7.09
2019-01-12T03:29:40.337Z,-7.09
2019-01-12T03:30:40.810Z,-7.10
2019-01-12T03:31:41.280Z,-7.10
2019-01-12T03:32:41.752Z,-7.10
2019-01-12T03:33:42.220Z,-7.10
2019-01-12T03:34:42.698Z,-7.09
2019-01-12T03:35:43.216Z,-7.10
2019-01-12T03:36:43.633Z,-7.10
2019-01-12T03:37:44.104Z,-7.08
2019-01-12T03:38:44.574Z,-7.08
2019-01-12T03:39:45.046Z,-7.10
2019-01-12T03:40:45.564Z,-7.09
2019-01-12T03:41:45.985Z,-7.08
2019-01-12T03:42:46.456Z,-7.10
2019-01-12T03:43:46.926Z,-7.08
2019-01-12T03:44:47.398Z,-7.08
2019-01-12T03:45:47.868Z,-7.08
2019-01-12T03:46:48.338Z,-7.10
2019-01-12T03:47:48.809Z,-7.08
2019-01-12T03:48:49.278Z,-7.09
2019-01-12T03:49:49.752Z,-7.10
2019-01-12T03:50:50.240Z,-7.09
2019-01-12T03:51:50.692Z,-7.09
2019-01-12T03:52:51.173Z,-7.08
2019-01-12T03:53:51.670Z,-7.09
2019-01-12T03:54:52.102Z,-7.08
2019-01-12T03:55:52.625Z,-7.08
2019-01-12T03:56:53.045Z,-7.08
2019-01-12T03:57:53.516Z,-7.08
2019-01-12T03:58:53.987Z,-7.08
2019-01-12T03:59:54.457Z,-7.09
2019-01-12T04:00:54.930Z,-7.08
2019-01-12T04:01:55.397Z,-7.10
2019-01-12T04:02:55.869Z,-7.08
2019-01-12T04:03:56.338Z,-7.08
2019-01-12T04:04:56.813Z,-7.09
2019-01-12T04:05:57.279Z,-7.08
2019-01-12T04:06:57.751Z,-7.09
2019-01-12T04:07:58.223Z,-7.08
2019-01-12T04:08:58.691Z,-7.09
2019-01-12T04:09:59.164Z,-7.08
2019-01-12T04:10:59.635Z,-7.08
2019-01-12T04:12:00.106Z,-7.08
2019-01-12T04:13:00.574Z,-7.07
2019-01-12T04:14:01.043Z,-7.08
2019-01-12T04:15:01.517Z,-7.08
2019-01-12T04:16:01.990Z,-7.08
2019-01-12T04:17:02.456Z,-7.06
2019-01-12T04:18:02.933Z,-7.08
2019-01-12T04:19:03.396Z,-7.10
2019-01-12T04:20:03.866Z,-7.08
2019-01-12T04:21:04.342Z,-7.08
2019-01-12T04:22:04.808Z,-7.06
2019-01-12T04:23:05.278Z,-7.08
2019-01-12T04:24:05.751Z,-7.08
2019-01-12T04:25:06.223Z,-7.07
2019-01-12T04:26:06.693Z,-7.08
2019-01-12T04:27:07.162Z,-7.07
2019-01-12T04:28:07.632Z,-7.08
2019-01-12T04:29:08.107Z,-7.07
2019-01-12T04:30:08.574Z,-7.08
2019-01-12T04:31:09.050Z,-7.08
2019-01-12T04:32:09.516Z,-7.09
2019-01-12T04:33:09.989Z,-7.08
2019-01-12T04:34:10.459Z,-7.06
2019-01-12T04:35:10.926Z,-7.08
2019-01-12T04:36:11.447Z,-7.08
2019-01-12T04:37:11.870Z,-7.10
2019-01-12T04:38:12.337Z,-7.08
2019-01-12T04:39:12.809Z,-7.08
2019-01-12T04:40:13.283Z,-7.07
2019-01-12T04:41:13.751Z,-7.08
2019-01-12T04:42:14.222Z,-7.06
2019-01-12T04:43:14.710Z,-7.07
2019-01-12T04:44:15.163Z,-7.08
2019-01-12T04:45:15.643Z,-7.07
2019-01-12T04:46:16.134Z,-7.08
2019-01-12T04:47:16.579Z,-7.06
2019-01-12T04:48:17.045Z,-7.08
2019-01-12T04:49:17.516Z,-7.08
2019-01-12T04:50:17.984Z,-7.08
2019-01-12T04:51:18.458Z,-7.06
2019-01-12T04:52:18.932Z,-7.07
2019-01-12T04:53:19.399Z,-7.08
2019-01-12T04:54:19.869Z,-7.08
2019-01-12T04:55:20.339Z,-7.06
2019-01-12T04:56:20.809Z,-7.08
2019-01-12T04:57:21.283Z,-7.06
2019-01-12T04:58:21.750Z,-7.08
2019-01-12T04:59:22.223Z,-7.08
2019-01-12T05:00:22.697Z,-7.08
2019-01-12T05:01:23.168Z,-7.08
2019-01-12T05:02:23.639Z,-7.07
2019-01-12T05:03:24.106Z,-7.08
2019-01-12T05:04:24.578Z,-7.07
2019-01-12T05:05:25.050Z,-7.07
2019-01-12T05:06:25.517Z,-7.07
2019-01-12T05:07:25.989Z,-7.08
2019-01-12T05:08:26.458Z,-7.06
2019-01-12T05:09:26.928Z,-7.07
2019-01-12T05:10:27.397Z,-7.08
2019-01-12T05:11:27.869Z,-7.08
2019-01-12T05:12:28.341Z,-7.06
2019-01-12T05:13:28.813Z,-7.08
2019-01-12T05:15:29.753Z,-7.08
2019-01-12T05:16:30.280Z,-7.06
2019-01-12T05:17:30.694Z,-7.07
2019-01-12T05:18:31.166Z,-7.08
2019-01-12T05:19:31.635Z,-7.08
2019-01-12T05:20:33.584Z,-7.08
2019-01-12T05:21:32.578Z,-7.08
2019-01-12T05:22:33.656Z,-7.08
2019-01-12T05:23:33.519Z,-7.06
2019-01-12T05:24:33.988Z,-7.06
2019-01-12T05:25:34.459Z,-7.06
2019-01-12T05:26:34.929Z,-7.06
2019-01-12T05:27:35.400Z,-7.06
2019-01-12T05:29:36.346Z,-7.06
2019-01-12T05:30:37.013Z,-7.06
2019-01-12T05:31:37.390Z,-7.06
2019-01-12T05:32:37.756Z,-7.08
2019-01-12T05:33:38.228Z,-7.06
2019-01-12T05:34:38.695Z,-7.07
2019-01-12T05:35:39.165Z,-7.07
2019-01-12T05:36:39.635Z,-7.06
2019-01-12T05:37:40.107Z,-7.06
2019-01-12T05:38:40.577Z,-7.06
2019-01-12T05:39:41.048Z,-7.06
2019-01-12T05:40:41.728Z,-7.06
2019-01-12T05:41:41.988Z,-7.06
2019-01-12T05:42:42.458Z,-7.06
2019-01-12T05:43:42.930Z,-7.06
2019-01-12T05:44:43.402Z,-7.06
2019-01-12T05:45:43.871Z,-7.07
2019-01-12T05:46:44.345Z,-7.04
2019-01-12T05:47:44.813Z,-7.06
2019-01-12T05:48:45.282Z,-7.07
2019-01-12T05:49:45.754Z,-7.06
2019-01-12T05:50:46.224Z,-7.06
2019-01-12T05:51:46.693Z,-7.06
2019-01-12T05:52:47.165Z,-7.06
2019-01-12T05:53:47.636Z,-7.07
2019-01-12T05:54:48.105Z,-7.06
2019-01-12T05:55:48.577Z,-7.07
2019-01-12T05:56:49.048Z,-7.06
2019-01-12T05:57:49.527Z,-7.06
2019-01-12T05:58:49.991Z,-7.06
2019-01-12T05:59:50.463Z,-7.06
2019-01-12T06:00:50.931Z,-7.06
2019-01-12T06:01:51.405Z,-7.06
2019-01-12T06:02:51.874Z,-7.06
2019-01-12T06:03:52.349Z,-7.06
2019-01-12T06:04:52.813Z,-7.06
2019-01-12T06:05:53.285Z,-7.04
2019-01-12T06:06:53.754Z,-7.06
2019-01-12T06:07:54.224Z,-7.06
2019-01-12T06:08:54.696Z,-7.06
2019-01-12T06:09:55.168Z,-7.06
2019-01-12T06:10:55.637Z,-7.07
2019-01-12T06:11:56.107Z,-7.06
2019-01-12T06:12:56.580Z,-7.04
2019-01-12T06:13:57.050Z,-7.06
2019-01-12T06:14:57.520Z,-7.06
2019-01-12T06:15:57.990Z,-7.06
2019-01-12T06:16:58.464Z,-7.06
2019-01-12T06:17:58.932Z,-7.04
2019-01-12T06:18:59.401Z,-7.05
2019-01-12T06:19:59.874Z,-7.04
2019-01-12T06:21:00.342Z,-7.06
2019-01-12T06:22:00.814Z,-7.06
2019-01-12T06:23:01.283Z,-7.04
2019-01-12T06:24:01.754Z,-7.06
2019-01-12T06:25:02.228Z,-7.05
2019-01-12T06:26:03.958Z,-7.06
2019-01-12T06:27:03.167Z,-7.06
2019-01-12T06:28:03.638Z,-7.04
2019-01-12T06:29:04.109Z,-7.06
2019-01-12T06:30:04.579Z,-7.05
2019-01-12T06:31:05.049Z,-7.04
2019-01-12T06:32:05.570Z,-7.06
2019-01-12T06:33:05.991Z,-7.06
2019-01-12T06:34:06.462Z,-7.04
2019-01-12T06:35:06.933Z,-7.04
2019-01-12T06:36:07.401Z,-7.05
2019-01-12T06:37:07.873Z,-7.04
2019-01-12T06:38:08.342Z,-7.04
2019-01-12T06:39:08.816Z,-7.04
2019-01-12T06:40:09.284Z,-7.04
2019-01-12T06:41:09.759Z,-7.04
2019-01-12T06:42:10.228Z,-7.04
2019-01-12T06:43:10.696Z,-7.06
2019-01-12T06:44:11.167Z,-7.05
2019-01-12T06:45:11.637Z,-7.04
2019-01-12T06:46:12.108Z,-7.04
2019-01-12T06:47:12.582Z,-7.04
2019-01-12T06:48:13.048Z,-7.04
2019-01-12T06:49:13.520Z,-7.03
2019-01-12T06:50:13.993Z,-7.04
2019-01-12T06:52:14.929Z,-7.02
2019-01-12T06:53:15.401Z,-7.04
2019-01-12T06:54:15.873Z,-7.02
2019-01-12T06:55:16.377Z,-7.03
2019-01-12T06:56:16.814Z,-7.04
2019-01-12T06:57:17.340Z,-7.03
2019-01-12T06:58:17.755Z,-7.03
2019-01-12T06:59:18.227Z,-7.04
2019-01-12T07:00:18.695Z,-7.02
2019-01-12T07:01:19.167Z,-7.02
2019-01-12T07:02:19.639Z,-7.02
2019-01-12T07:03:20.107Z,-7.02
2019-01-12T07:04:20.575Z,-7.02
2019-01-12T07:05:21.047Z,-7.03
2019-01-12T07:06:21.517Z,-7.04
2019-01-12T07:07:22.039Z,-7.04
2019-01-12T07:08:22.458Z,-7.04
2019-01-12T07:09:22.928Z,-7.04
2019-01-12T07:10:23.400Z,-7.03
2019-01-12T07:11:23.872Z,-7.02
2019-01-12T07:12:24.343Z,-7.02
2019-01-12T07:13:24.811Z,-7.04
2019-01-12T07:14:25.307Z,-7.02
2019-01-12T07:15:25.759Z,-7.01
2019-01-12T07:16:26.222Z,-7.02
2019-01-12T07:17:27.229Z,-7.02
2019-01-12T07:18:27.165Z,-7.02
2019-01-12T07:19:27.635Z,-7.02
2019-01-12T07:20:28.104Z,-7.02
2019-01-12T07:21:28.576Z,-7.02
2019-01-12T07:22:29.096Z,-7.01
2019-01-12T07:23:29.515Z,-7.02
2019-01-12T07:24:29.986Z,-7.03
2019-01-12T07:25:30.457Z,-7.02
2019-01-12T07:26:30.929Z,-7.01
2019-01-12T07:27:31.401Z,-7.02
2019-01-12T07:28:31.872Z,-7.02
2019-01-12T07:29:32.543Z,-7.02
2019-01-12T07:30:32.811Z,-7.02
2019-01-12T07:31:33.280Z,-7.01
2019-01-12T07:32:33.762Z,-7.02
2019-01-12T07:33:34.222Z,-7.02
2019-01-12T07:34:34.694Z,-7.00
2019-01-12T07:35:35.162Z,-7.02
2019-01-12T07:36:35.636Z,-7.02
2019-01-12T07:37:36.106Z,-7.02
2019-01-12T07:38:36.575Z,-7.02
2019-01-12T07:39:37.045Z,-7.02
2019-01-12T07:40:37.517Z,-7.01
2019-01-12T07:41:37.988Z,-7.02
2019-01-12T07:42:38.459Z,-7.00
2019-01-12T07:43:38.931Z,-7.01
2019-01-12T07:44:39.403Z,-7.00
2019-01-12T07:45:39.871Z,-7.00
2019-01-12T07:46:40.340Z,-7.00
2019-01-12T07:47:40.810Z,-7.00
2019-01-12T07:48:41.319Z,-7.01
2019-01-12T07:49:41.753Z,-7.00
2019-01-12T07:50:42.227Z,-7.01
2019-01-12T07:51:42.691Z,-7.00
2019-01-12T07:52:43.170Z,-7.00
2019-01-12T07:53:43.633Z,-7.00
2019-01-12T07:54:44.107Z,-6.98
2019-01-12T07:55:44.578Z,-7.00
2019-01-12T07:56:45.048Z,-6.98
2019-01-12T07:57:45.518Z,-7.00
2019-01-12T07:58:45.986Z,-6.98
2019-01-12T07:59:46.457Z,-7.00
2019-01-12T08:00:46.930Z,-7.00
2019-01-12T08:01:47.399Z,-7.00
2019-01-12T08:02:47.877Z,-7.01
2019-01-12T08:03:48.340Z,-7.00
2019-01-12T08:04:48.811Z,-7.00
2019-01-12T08:05:49.282Z,-7.00
2019-01-12T08:06:49.796Z,-6.99
2019-01-12T08:07:50.223Z,-7.00
2019-01-12T08:08:50.692Z,-6.98
2019-01-12T08:09:51.165Z,-6.99
2019-01-12T08:10:51.635Z,-7.00
2019-01-12T08:11:52.104Z,-7.00
2019-01-12T08:12:52.574Z,-7.00
2019-01-12T08:13:53.047Z,-6.99
2019-01-12T08:14:53.518Z,-7.00
2019-01-12T08:15:53.989Z,-7.00
2019-01-12T08:16:54.459Z,-7.00
2019-01-12T08:17:54.934Z,-7.00
2019-01-12T08:18:55.398Z,-6.98
2019-01-12T08:19:55.870Z,-6.99
2019-01-12T08:20:56.340Z,-6.98
2019-01-12T08:21:56.810Z,-6.98
2019-01-12T08:22:57.333Z,-6.99
2019-01-12T08:23:57.751Z,-7.00
2019-01-12T08:24:58.223Z,-6.98
2019-01-12T08:25:58.693Z,-7.00
2019-01-12T08:26:59.166Z,-6.99
2019-01-12T08:27:59.633Z,-6.98
2019-01-12T08:29:00.103Z,-6.98
2019-01-12T08:30:00.576Z,-6.98
2019-01-12T08:31:01.044Z,-6.98
2019-01-12T08:32:01.517Z,-6.96
2019-01-12T08:33:01.989Z,-6.98
2019-01-12T08:34:02.458Z,-6.97
2019-01-12T08:35:02.929Z,-6.98
2019-01-12T08:36:03.397Z,-6.97
2019-01-12T08:37:03.867Z,-6.97
2019-01-12T08:38:04.392Z,-6.96
2019-01-12T08:39:04.810Z,-6.98
2019-01-12T08:40:05.280Z,-6.97
2019-01-12T08:41:05.753Z,-6.96
2019-01-12T08:42:06.564Z,-6.96
2019-01-12T08:43:06.741Z,-6.96
2019-01-12T08:44:07.160Z,-6.96
2019-01-12T08:45:07.633Z,-6.98
2019-01-12T08:46:08.104Z,-6.97
2019-01-12T08:47:08.575Z,-6.96
2019-01-12T08:48:09.042Z,-6.97
2019-01-12T08:49:09.514Z,-6.96
2019-01-12T08:50:09.988Z,-6.98
2019-01-12T08:51:10.454Z,-6.96
2019-01-12T08:52:10.926Z,-6.96
2019-01-12T08:53:11.400Z,-6.96
2019-01-12T08:54:11.866Z,-6.94
2019-01-12T08:55:12.337Z,-6.95
2019-01-12T08:56:12.806Z,-6.95
2019-01-12T08:57:13.279Z,-6.96
2019-01-12T08:58:13.799Z,-6.94
2019-01-12T08:59:14.218Z,-6.94
2019-01-12T09:00:14.688Z,-6.94
2019-01-12T09:01:15.160Z,-6.94
2019-01-12T09:02:15.649Z,-6.94
2019-01-12T09:03:16.302Z,-6.94
2019-01-12T09:04:16.570Z,-6.94
2019-01-12T09:05:17.045Z,-6.94
2019-01-12T09:06:17.715Z,-6.93
2019-01-12T09:07:17.980Z,-6.94
2019-01-12T09:08:18.451Z,-6.94
2019-01-12T09:09:18.922Z,-6.94
2019-01-12T09:10:19.836Z,-6.92
2019-01-12T09:11:19.864Z,-6.92
2019-01-12T09:12:20.332Z,-6.92
2019-01-12T09:13:20.806Z,-6.92
2019-01-12T09:14:21.277Z,-6.92
2019-01-12T09:15:21.744Z,-6.92
2019-01-12T09:16:22.214Z,-6.92
2019-01-12T09:17:22.685Z,-6.92
2019-01-12T09:18:23.155Z,-6.92
2019-01-12T09:19:23.626Z,-6.92
2019-01-12T09:20:24.097Z,-6.91
2019-01-12T09:21:24.565Z,-6.90
2019-01-12T09:22:25.044Z,-6.92
2019-01-12T09:23:25.506Z,-6.92
2019-01-12T09:24:25.976Z,-6.91
2019-01-12T09:25:26.450Z,-6.92
2019-01-12T09:26:26.917Z,-6.92
2019-01-12T09:27:27.391Z,-6.90
2019-01-12T09:28:27.858Z,-6.92
2019-01-12T09:29:28.329Z,-6.92
2019-01-12T09:30:28.800Z,-6.90
2019-01-12T09:31:29.273Z,-6.92
2019-01-12T09:32:29.741Z,-6.90
2019-01-12T09:33:30.262Z,-6.90
2019-01-12T09:34:30.680Z,-6.90
2019-01-12T09:35:31.151Z,-6.88
2019-01-12T09:36:31.622Z,-6.90
2019-01-12T09:37:32.098Z,-6.89
2019-01-12T09:38:32.561Z,-6.88
2019-01-12T09:39:33.033Z,-6.90
2019-01-12T09:40:33.504Z,-6.88
2019-01-12T09:41:33.974Z,-6.88
2019-01-12T09:42:34.444Z,-6.88
2019-01-12T09:43:34.914Z,-6.89
2019-01-12T09:44:35.385Z,-6.90
2019-01-12T09:45:35.855Z,-6.88
2019-01-12T09:46:36.325Z,-6.87
2019-01-12T09:47:36.794Z,-6.88
2019-01-12T09:48:37.266Z,-6.89
2019-01-12T09:49:37.735Z,-6.86
2019-01-12T09:50:38.209Z,-6.88
2019-01-12T09:51:38.678Z,-6.88
2019-01-12T09:52:39.150Z,-6.87
2019-01-12T09:53:39.620Z,-6.88
2019-01-12T09:54:40.093Z,-6.86
2019-01-12T09:55:40.560Z,-6.88
2019-01-12T09:56:41.031Z,-6.86
2019-01-12T09:57:41.499Z,-6.88
2019-01-12T09:58:42.024Z,-6.86
2019-01-12T09:59:42.442Z,-6.85
2019-01-12T10:00:42.909Z,-6.86
2019-01-12T10:01:43.383Z,-6.87
2019-01-12T10:02:43.853Z,-6.86
2019-01-12T10:03:44.321Z,-6.86
2019-01-12T10:04:44.792Z,-6.86
2019-01-12T10:05:45.263Z,-6.84
2019-01-12T10:06:45.736Z,-6.86
2019-01-12T10:07:46.204Z,-6.85
2019-01-12T10:08:46.726Z,-6.85
2019-01-12T10:09:47.149Z,-6.84
2019-01-12T10:10:47.619Z,-6.85
2019-01-12T10:11:48.086Z,-6.84
2019-01-12T10:12:48.559Z,-6.86
2019-01-12T10:13:49.034Z,-6.84
2019-01-12T10:14:49.499Z,-6.86
2019-01-12T10:15:49.973Z,-6.84
2019-01-12T10:17:50.908Z,-6.86
2019-01-12T10:19:52.258Z,-6.85
2019-01-12T10:20:52.320Z,-6.86
2019-01-12T10:21:52.791Z,-6.84
2019-01-12T10:22:53.261Z,-6.86
2019-01-12T10:23:53.783Z,-6.83
2019-01-12T10:24:54.211Z,-6.84
2019-01-12T10:25:54.673Z,-6.83
2019-01-12T10:26:58.508Z,-6.83
2019-01-12T10:27:55.613Z,-6.84
2019-01-12T10:28:56.115Z,-6.83
2019-01-12T10:29:56.553Z,-6.82
2019-01-12T10:30:57.024Z,-6.81
2019-01-12T10:31:57.495Z,-6.82
2019-01-12T10:32:57.964Z,-6.83
2019-01-12T10:33:58.434Z,-6.82
2019-01-12T10:34:58.905Z,-6.82
2019-01-12T10:35:59.377Z,-6.82
2019-01-12T10:36:59.847Z,-6.82
2019-01-12T10:38:00.317Z,-6.82
2019-01-12T10:39:00.788Z,-6.82
2019-01-12T10:40:01.270Z,-6.81
2019-01-12T10:41:01.733Z,-6.81
2019-01-12T10:42:02.202Z,-6.81
2019-01-12T10:43:02.668Z,-6.82
2019-01-12T10:44:03.343Z,-6.80
2019-01-12T10:45:04.662Z,-6.80
2019-01-12T10:46:04.082Z,-6.80
2019-01-12T10:47:04.552Z,-6.80
2019-01-12T10:48:05.022Z,-6.80
2019-01-12T10:49:05.541Z,-6.79
2019-01-12T10:50:05.963Z,-6.80
2019-01-12T10:51:06.432Z,-6.78
2019-01-12T10:52:06.903Z,-6.78
2019-01-12T10:53:07.373Z,-6.78
2019-01-12T10:54:07.843Z,-6.80
2019-01-12T10:55:08.312Z,-6.80
2019-01-12T10:56:08.786Z,-6.80
2019-01-12T10:57:09.258Z,-6.80
2019-01-12T10:58:09.725Z,-6.80
2019-01-12T10:59:10.197Z,-6.78
2019-01-12T11:00:10.666Z,-6.78
2019-01-12T11:01:11.135Z,-6.79
2019-01-12T11:02:11.604Z,-6.78
2019-01-12T11:03:12.080Z,-6.80
2019-01-12T11:04:12.546Z,-6.78
2019-01-12T11:05:13.017Z,-6.79
2019-01-12T11:06:13.491Z,-6.78
2019-01-12T11:07:13.958Z,-6.78
2019-01-12T11:08:14.430Z,-6.78
2019-01-12T11:09:14.899Z,-6.78
2019-01-12T11:10:15.368Z,-6.78
2019-01-12T11:11:15.840Z,-6.78
2019-01-12T11:12:16.311Z,-6.78
2019-01-12T11:13:16.984Z,-6.76
2019-01-12T11:14:17.254Z,-6.76
2019-01-12T11:15:17.730Z,-6.78
2019-01-12T11:16:18.194Z,-6.76
2019-01-12T11:17:18.662Z,-6.76
2019-01-12T11:18:19.133Z,-6.76
2019-01-12T11:19:19.601Z,-6.76
2019-01-12T11:20:20.075Z,-6.76
2019-01-12T11:21:20.542Z,-6.77
2019-01-12T11:22:21.013Z,-6.76
2019-01-12T11:23:21.486Z,-6.76
2019-01-12T11:24:21.954Z,-6.75
2019-01-12T11:25:22.425Z,-6.76
2019-01-12T11:26:22.898Z,-6.76
2019-01-12T11:27:23.366Z,-6.76
2019-01-12T11:28:23.836Z,-6.76
2019-01-12T11:29:24.313Z,-6.76
2019-01-12T11:30:24.776Z,-6.74
2019-01-12T11:31:25.248Z,-6.76
2019-01-12T11:32:25.718Z,-6.75
2019-01-12T11:33:26.189Z,-6.74
2019-01-12T11:34:26.657Z,-6.73
2019-01-12T11:35:27.129Z,-6.75
2019-01-12T11:36:27.601Z,-6.73
2019-01-12T11:37:28.069Z,-6.74
2019-01-12T11:38:28.552Z,-6.72
2019-01-12T11:39:29.112Z,-6.72
2019-01-12T11:40:29.482Z,-6.72
2019-01-12T11:41:29.955Z,-6.72
2019-01-12T11:42:30.423Z,-6.72
2019-01-12T11:43:30.892Z,-6.70
2019-01-12T11:44:31.419Z,-6.70
2019-01-12T11:45:31.840Z,-6.72
2019-01-12T11:46:32.303Z,-6.70
2019-01-12T11:47:32.773Z,-6.71
2019-01-12T11:48:33.246Z,-6.70
2019-01-12T11:49:33.715Z,-6.70
2019-01-12T11:50:34.184Z,-6.70
2019-01-12T11:51:34.659Z,-6.70
2019-01-12T11:52:35.126Z,-6.70
2019-01-12T11:53:35.594Z,-6.70
2019-01-12T11:54:36.268Z,-6.70
2019-01-12T11:55:36.536Z,-6.70
2019-01-12T11:56:37.009Z,-6.70
2019-01-12T11:57:37.480Z,-6.70
2019-01-12T11:58:37.950Z,-6.68
2019-01-12T11:59:38.418Z,-6.70
2019-01-12T12:00:38.891Z,-6.69
2019-01-12T12:01:39.360Z,-6.68
2019-01-12T12:02:39.833Z,-6.69
2019-01-12T12:03:40.301Z,-6.68
2019-01-12T12:04:40.770Z,-6.68
2019-01-12T12:05:41.238Z,-6.68
2019-01-12T12:06:41.708Z,-6.68
2019-01-12T12:07:42.180Z,-6.67
2019-01-12T12:08:42.651Z,-6.68
2019-01-12T12:09:43.121Z,-6.67
2019-01-12T12:10:43.590Z,-6.68
2019-01-12T12:11:44.065Z,-6.66
2019-01-12T12:12:44.534Z,-6.66
2019-01-12T12:13:45.003Z,-6.66
2019-01-12T12:14:45.530Z,-6.66
2019-01-12T12:15:45.944Z,-6.66
2019-01-12T12:16:46.415Z,-6.66
2019-01-12T12:17:46.881Z,-6.66
2019-01-12T12:18:47.358Z,-6.66
2019-01-12T12:19:47.880Z,-6.66
2019-01-12T12:20:48.295Z,-6.66
2019-01-12T12:21:48.765Z,-6.66
2019-01-12T12:22:49.235Z,-6.65
2019-01-12T12:23:49.706Z,-6.64
2019-01-12T12:24:50.176Z,-6.65
2019-01-12T12:25:50.649Z,-6.64
2019-01-12T12:26:51.117Z,-6.64
2019-01-12T12:27:51.588Z,-6.64
2019-01-12T12:28:52.060Z,-6.62
2019-01-12T12:29:52.528Z,-6.64
2019-01-12T12:30:53.001Z,-6.64
2019-01-12T12:31:53.471Z,-6.64
2019-01-12T12:32:53.939Z,-6.64
2019-01-12T12:33:54.412Z,-6.64
2019-01-12T12:34:54.930Z,-6.64
2019-01-12T12:35:55.353Z,-6.62
2019-01-12T12:36:55.819Z,-6.64
2019-01-12T12:37:56.289Z,-6.64
2019-01-12T12:38:56.774Z,-6.62
2019-01-12T12:39:57.229Z,-6.62
2019-01-12T12:40:57.700Z,-6.62
2019-01-12T12:41:58.169Z,-6.63
2019-01-12T12:42:58.640Z,-6.63
2019-01-12T12:43:59.116Z,-6.63
2019-01-12T12:44:59.583Z,-6.62
2019-01-12T12:46:00.051Z,-6.62
2019-01-12T12:47:00.524Z,-6.62
2019-01-12T12:48:00.992Z,-6.62
2019-01-12T12:49:01.461Z,-6.62
2019-01-12T12:50:01.934Z,-6.61
2019-01-12T12:51:02.404Z,-6.62
2019-01-12T12:52:02.873Z,-6.60
2019-01-12T12:53:03.346Z,-6.62
2019-01-12T12:54:03.942Z,-6.62
2019-01-12T12:55:04.334Z,-6.62
2019-01-12T12:56:04.753Z,-6.60
2019-01-12T12:57:05.226Z,-6.60
2019-01-12T12:58:05.694Z,-6.62
2019-01-12T12:59:06.165Z,-6.62
2019-01-12T13:00:06.634Z,-6.60
2019-01-12T13:01:07.105Z,-6.60
2019-01-12T13:02:07.575Z,-6.60
2019-01-12T13:03:08.044Z,-6.60